Disclaimer

Please do not use the information listed here in-flight or in-navigation, as they are not provided to us by the airports but are provided by volunteers, so they might be outdated.

Search


Regions


Airport information page

Radio informations:
CASTRES INFO - 118.5 MHz

Airport informations:
Latitude: 43° 33' 22.50" N
Longitude: 002° 17' 21.06" E
Elevation: 788 feet - 240 meters
Operating hours: Remarks
Operating agency: Civil government, landing fees and diplomatic clearance may be required
Timezone: UTC+1(+2DT) - Last Sunday in March to last Sunday in October
Fuel: Jet A1, without icing nhibitor.

100/130 MIL Spec, low lead, aviation gasoline (BLUE)

Runway information:
14/32 - 5988 x 98 feet< - >1825 x 30 meters

Recent METARs:
LFCK 192030Z AUTO 25005KT 9999 BKN028 OVC044 06/04 Q1002 NOSIG
LFCK 192100Z AUTO 28003KT 9999 BKN030 BKN052 BKN082 06/04 Q1002 NOSIG
LFCK 192130Z AUTO 27003KT 9999 OVC035 06/04 Q1001 NOSIG

Airport on the map: